createdAt,value
2023-02-08T00:00:13.504Z,101327.97
2023-02-08T00:02:41.276Z,101333.47
2023-02-08T00:05:08.837Z,101337.91
2023-02-08T00:07:35.987Z,101339.34
2023-02-08T00:10:06.611Z,101336.47
2023-02-08T00:12:34.112Z,101337.12
2023-02-08T00:15:01.262Z,101343.34
2023-02-08T00:17:28.739Z,101343.84
2023-02-08T00:19:55.907Z,101349.44
2023-02-08T00:22:23.332Z,101349.97
2023-02-08T00:24:51.444Z,101354.00
2023-02-08T00:27:18.668Z,101346.84
2023-02-08T00:29:45.915Z,101355.22
2023-02-08T00:32:13.365Z,101353.88
2023-02-08T00:34:40.511Z,101353.88
2023-02-08T00:37:09.693Z,101357.88
2023-02-08T00:39:37.132Z,101357.44
2023-02-08T00:42:04.394Z,101355.13
2023-02-08T00:44:32.935Z,101352.47
2023-02-08T00:47:00.354Z,101351.81
2023-02-08T00:49:27.575Z,101357.34
2023-02-08T00:51:54.729Z,101356.31
2023-02-08T00:54:23.497Z,101362.31
2023-02-08T00:56:50.658Z,101355.84
2023-02-08T00:59:19.054Z,101357.12
2023-02-08T01:01:46.526Z,101357.00
2023-02-08T01:04:13.685Z,101351.72
2023-02-08T01:06:40.874Z,101354.31
2023-02-08T01:09:08.305Z,101358.28
2023-02-08T01:11:35.622Z,101353.88
2023-02-08T01:14:02.769Z,101354.34
2023-02-08T01:16:31.147Z,101352.09
2023-02-08T01:19:00.623Z,101357.66
2023-02-08T01:21:33.825Z,101348.06
2023-02-08T01:24:01.463Z,101353.88
2023-02-08T01:26:30.458Z,101348.16
2023-02-08T01:28:59.416Z,101348.84
2023-02-08T01:31:30.836Z,101344.91
2023-02-08T01:34:00.390Z,101343.41
2023-02-08T01:36:28.152Z,101346.63
2023-02-08T01:38:55.299Z,101353.81
2023-02-08T01:41:26.534Z,101347.84
2023-02-08T01:44:00.010Z,101352.75
2023-02-08T01:46:27.212Z,101352.75
2023-02-08T01:48:54.936Z,101355.84
2023-02-08T01:51:23.861Z,101348.81
2023-02-08T01:53:51.154Z,101353.56
2023-02-08T01:56:21.314Z,101347.16
2023-02-08T01:58:49.764Z,101353.94
2023-02-08T02:01:16.979Z,101352.25
2023-02-08T02:03:44.457Z,101348.31
2023-02-08T02:06:13.785Z,101357.53
2023-02-08T02:08:43.196Z,101350.19
2023-02-08T02:11:11.564Z,101345.03
2023-02-08T02:13:38.744Z,101342.16
2023-02-08T02:16:06.352Z,101352.56
2023-02-08T02:18:33.761Z,101350.97
2023-02-08T02:21:19.690Z,101356.03
2023-02-08T02:24:05.691Z,101350.56
2023-02-08T02:26:35.882Z,101348.56
2023-02-08T02:29:22.276Z,101342.19
2023-02-08T02:31:49.500Z,101340.75
2023-02-08T02:34:23.239Z,101333.47
2023-02-08T02:36:59.290Z,101337.31
2023-02-08T02:39:26.790Z,101340.47
2023-02-08T02:42:12.862Z,101349.59
2023-02-08T02:44:43.375Z,101341.87
2023-02-08T02:47:10.641Z,101340.28
2023-02-08T02:49:46.167Z,101346.44
2023-02-08T02:52:19.291Z,101347.75
2023-02-08T02:54:47.879Z,101350.00
2023-02-08T02:57:17.260Z,101355.03
2023-02-08T02:59:46.793Z,101362.09
2023-02-08T03:02:14.103Z,101356.59
2023-02-08T03:04:41.484Z,101365.75
2023-02-08T03:07:11.414Z,101371.56
2023-02-08T03:09:44.387Z,101362.78
2023-02-08T03:12:31.281Z,101376.63
2023-02-08T03:15:00.312Z,101384.94
2023-02-08T03:17:27.684Z,101381.25
2023-02-08T03:19:54.818Z,101378.03
2023-02-08T03:22:22.889Z,101380.41
2023-02-08T03:25:01.486Z,101396.03
2023-02-08T03:27:33.116Z,101385.53
2023-02-08T03:30:02.129Z,101395.34
2023-02-08T03:32:38.434Z,101393.63
2023-02-08T03:35:32.119Z,101389.00
2023-02-08T03:38:06.134Z,101384.88
2023-02-08T03:40:46.577Z,101387.94
2023-02-08T03:43:30.310Z,101397.97
2023-02-08T03:46:00.513Z,101393.16
2023-02-08T03:48:27.669Z,101395.53
2023-02-08T03:50:54.959Z,101398.09
2023-02-08T03:53:22.718Z,101405.72
2023-02-08T03:55:50.425Z,101408.78
2023-02-08T03:58:26.320Z,101411.22
2023-02-08T04:00:58.704Z,101403.63
2023-02-08T04:03:27.137Z,101400.59
2023-02-08T04:05:54.293Z,101407.91
2023-02-08T04:08:21.990Z,101399.03
2023-02-08T04:10:49.709Z,101389.81
2023-02-08T04:13:16.871Z,101400.09
2023-02-08T04:15:44.549Z,101395.59
2023-02-08T04:18:12.126Z,101395.69
2023-02-08T04:20:39.573Z,101397.13
2023-02-08T04:23:06.933Z,101392.09
2023-02-08T04:25:34.342Z,101403.03
2023-02-08T04:28:01.513Z,101413.63
2023-02-08T04:30:28.723Z,101416.75
2023-02-08T04:32:56.244Z,101415.53
2023-02-08T04:35:23.370Z,101416.09
2023-02-08T04:37:50.589Z,101403.22
2023-02-08T04:40:18.035Z,101402.31
2023-02-08T04:42:45.161Z,101398.31
2023-02-08T04:45:12.360Z,101397.84
2023-02-08T04:47:39.790Z,101394.81
2023-02-08T04:50:06.958Z,101397.00
2023-02-08T04:52:34.085Z,101405.69
2023-02-08T04:55:01.575Z,101409.69
2023-02-08T04:57:28.722Z,101412.69
2023-02-08T04:59:55.856Z,101403.56
2023-02-08T05:02:23.286Z,101397.31
2023-02-08T05:04:50.747Z,101396.22
2023-02-08T05:07:17.926Z,101407.19
2023-02-08T05:09:45.392Z,101398.56
2023-02-08T05:12:12.632Z,101405.88
2023-02-08T05:14:40.807Z,101406.16
2023-02-08T05:17:08.208Z,101402.72
2023-02-08T05:19:35.396Z,101415.97
2023-02-08T05:22:02.572Z,101417.28
2023-02-08T05:24:30.001Z,101415.56
2023-02-08T05:26:57.204Z,101418.72
2023-02-08T05:29:24.328Z,101420.88
2023-02-08T05:31:51.861Z,101432.84
2023-02-08T05:34:19.033Z,101429.38
2023-02-08T05:36:46.327Z,101430.06
2023-02-08T05:39:13.741Z,101429.09
2023-02-08T05:41:41.986Z,101420.25
2023-02-08T05:44:09.549Z,101415.66
2023-02-08T05:46:38.369Z,101419.94
2023-02-08T05:49:05.682Z,101425.22
2023-02-08T05:51:32.848Z,101426.78
2023-02-08T05:54:00.283Z,101430.75
2023-02-08T05:56:27.962Z,101423.87
2023-02-08T05:58:55.108Z,101419.91
2023-02-08T06:01:22.674Z,101417.91
2023-02-08T06:03:50.160Z,101415.03
2023-02-08T06:06:17.480Z,101422.97
2023-02-08T06:08:44.753Z,101425.38
2023-02-08T06:11:12.251Z,101431.75
2023-02-08T06:13:39.392Z,101437.78
2023-02-08T06:16:06.780Z,101451.41
2023-02-08T06:18:34.254Z,101444.50
2023-02-08T06:21:01.410Z,101448.28
2023-02-08T06:23:28.584Z,101453.44
2023-02-08T06:25:56.019Z,101453.47
2023-02-08T06:28:23.230Z,101454.75
2023-02-08T06:30:51.470Z,101447.44
2023-02-08T06:33:19.232Z,101453.87
2023-02-08T06:35:46.864Z,101460.50
2023-02-08T06:38:14.230Z,101450.28
2023-02-08T06:40:42.163Z,101452.84
2023-02-08T06:43:09.571Z,101452.94
2023-02-08T06:45:36.757Z,101459.78
2023-02-08T06:48:04.297Z,101461.09
2023-02-08T06:50:31.828Z,101462.28
2023-02-08T06:52:59.041Z,101466.84
2023-02-08T06:55:26.460Z,101467.81
2023-02-08T06:57:54.161Z,101465.94
2023-02-08T07:00:21.502Z,101468.63
2023-02-08T07:02:49.326Z,101477.44
2023-02-08T07:05:16.502Z,101475.81
2023-02-08T07:07:43.871Z,101474.84
2023-02-08T07:10:11.332Z,101487.06
2023-02-08T07:12:38.485Z,101482.69
2023-02-08T07:15:05.723Z,101488.72
2023-02-08T07:17:33.181Z,101485.19
2023-02-08T07:20:00.359Z,101486.34
2023-02-08T07:22:27.539Z,101486.84
2023-02-08T07:24:55.981Z,101496.50
2023-02-08T07:27:25.039Z,101496.97
2023-02-08T07:29:53.170Z,101492.59
2023-02-08T07:32:20.661Z,101504.37
2023-02-08T07:34:47.897Z,101497.34
2023-02-08T07:37:15.222Z,101508.59
2023-02-08T07:39:42.699Z,101514.47
2023-02-08T07:42:10.880Z,101522.09
2023-02-08T07:44:40.296Z,101519.69
2023-02-08T07:47:07.849Z,101522.78
2023-02-08T07:49:35.099Z,101520.06
2023-02-08T07:52:02.450Z,101516.72
2023-02-08T07:54:30.029Z,101524.63
2023-02-08T07:56:57.168Z,101525.63
2023-02-08T07:59:24.483Z,101527.44
2023-02-08T08:01:52.182Z,101531.94
2023-02-08T08:04:19.933Z,101527.56
2023-02-08T08:06:47.145Z,101532.03
2023-02-08T08:09:15.425Z,101540.88
2023-02-08T08:11:42.839Z,101538.41
2023-02-08T08:14:10.044Z,101542.88
2023-02-08T08:16:38.440Z,101550.84
2023-02-08T08:19:05.909Z,101547.94
2023-02-08T08:21:33.069Z,101558.28
2023-02-08T08:24:00.215Z,101554.56
2023-02-08T08:26:27.670Z,101551.81
2023-02-08T08:28:54.865Z,101550.75
2023-02-08T08:31:25.250Z,101550.16
2023-02-08T08:33:53.802Z,101554.69
2023-02-08T08:36:20.955Z,101549.72
2023-02-08T08:38:48.135Z,101554.94
2023-02-08T08:41:17.901Z,101565.19
2023-02-08T08:43:46.730Z,101576.88
2023-02-08T08:46:15.202Z,101571.84
2023-02-08T08:48:42.864Z,101557.03
2023-02-08T08:51:10.229Z,101556.53
2023-02-08T08:53:37.394Z,101564.09
2023-02-08T08:56:05.349Z,101566.81
2023-02-08T08:58:32.590Z,101567.66
2023-02-08T09:01:00.197Z,101575.50
2023-02-08T09:03:28.067Z,101581.38
2023-02-08T09:05:55.448Z,101577.09
2023-02-08T09:08:22.649Z,101578.69
2023-02-08T09:10:50.148Z,101569.37
2023-02-08T09:13:19.859Z,101577.78
2023-02-08T09:15:48.061Z,101581.78
2023-02-08T09:18:15.647Z,101587.41
2023-02-08T09:20:43.187Z,101594.50
2023-02-08T09:23:10.672Z,101597.38
2023-02-08T09:25:38.206Z,101604.72
2023-02-08T09:28:05.430Z,101596.19
2023-02-08T09:30:32.973Z,101605.91
2023-02-08T09:33:00.464Z,101599.66
2023-02-08T09:35:27.627Z,101606.56
2023-02-08T09:37:55.793Z,101600.66
2023-02-08T09:40:24.290Z,101594.06
2023-02-08T09:43:00.762Z,101596.72
2023-02-08T09:45:36.752Z,101600.09
2023-02-08T09:48:15.261Z,101599.13
2023-02-08T09:50:44.808Z,101600.97
2023-02-08T09:53:19.754Z,101599.34
2023-02-08T09:55:48.466Z,101599.63
2023-02-08T09:58:21.874Z,101597.91
2023-02-08T10:00:50.806Z,101612.69
2023-02-08T10:03:24.241Z,101608.03
2023-02-08T10:05:51.456Z,101607.69
2023-02-08T10:08:18.951Z,101601.78
2023-02-08T10:10:46.069Z,101596.78
2023-02-08T10:13:19.360Z,101597.38
2023-02-08T10:15:52.303Z,101596.47
2023-02-08T10:18:25.804Z,101599.22
2023-02-08T10:21:08.294Z,101593.16
2023-02-08T10:23:38.677Z,101596.81
2023-02-08T10:26:18.222Z,101603.31
2023-02-08T10:28:45.568Z,101602.78
2023-02-08T10:31:13.285Z,101607.66
2023-02-08T10:33:40.524Z,101596.69
2023-02-08T10:36:15.316Z,101594.78
2023-02-08T10:38:46.793Z,101600.63
2023-02-08T10:41:15.968Z,101591.88
2023-02-08T10:43:48.913Z,101594.06
2023-02-08T10:46:28.341Z,101600.53
2023-02-08T10:49:14.178Z,101603.41
2023-02-08T10:51:41.454Z,101601.56
2023-02-08T10:54:12.850Z,101600.31
2023-02-08T10:56:58.571Z,101595.00
2023-02-08T10:59:26.721Z,101593.16
2023-02-08T11:01:54.056Z,101594.88
2023-02-08T11:04:21.291Z,101597.66
2023-02-08T11:06:50.097Z,101588.72
2023-02-08T11:09:46.497Z,101588.94
2023-02-08T11:12:17.809Z,101590.50
2023-02-08T11:14:48.360Z,101586.50
2023-02-08T11:17:26.443Z,101590.22
2023-02-08T11:19:53.655Z,101593.16
2023-02-08T11:22:23.415Z,101583.59
2023-02-08T11:25:01.067Z,101589.28
2023-02-08T11:27:28.512Z,101577.75
2023-02-08T11:30:22.043Z,101578.72
2023-02-08T11:32:50.759Z,101600.38
2023-02-08T11:35:20.714Z,101591.62
2023-02-08T11:37:48.491Z,101592.97
2023-02-08T11:40:21.079Z,101582.53
2023-02-08T11:42:48.419Z,101583.03
2023-02-08T11:45:19.626Z,101583.50
2023-02-08T11:47:46.958Z,101582.50
2023-02-08T11:50:34.358Z,101566.50
2023-02-08T11:53:02.537Z,101565.84
2023-02-08T11:55:31.076Z,101574.25
2023-02-08T11:58:02.077Z,101556.19
2023-02-08T12:00:35.547Z,101564.25
2023-02-08T12:03:06.087Z,101555.09
2023-02-08T12:05:42.612Z,101561.38
2023-02-08T12:08:29.197Z,101559.00
2023-02-08T12:11:12.074Z,101570.66
2023-02-08T12:13:54.980Z,101564.19
2023-02-08T12:16:26.315Z,101558.25
2023-02-08T12:19:09.271Z,101560.59
2023-02-08T12:21:45.523Z,101557.66
2023-02-08T12:24:22.001Z,101557.00
2023-02-08T12:27:07.704Z,101564.44
2023-02-08T12:30:10.696Z,101563.94
2023-02-08T12:32:40.813Z,101562.91
2023-02-08T12:35:16.019Z,101560.38
2023-02-08T12:38:09.177Z,101551.13
2023-02-08T12:40:55.341Z,101543.88
2023-02-08T12:43:22.679Z,101554.38
2023-02-08T12:45:58.967Z,101550.09
2023-02-08T12:48:29.141Z,101549.16
2023-02-08T12:51:00.627Z,101550.91
2023-02-08T12:53:31.039Z,101547.12
2023-02-08T12:55:59.758Z,101542.47
2023-02-08T12:58:46.145Z,101535.37
2023-02-08T13:01:32.148Z,101534.03
2023-02-08T13:04:04.950Z,101542.03
2023-02-08T13:06:36.503Z,101540.94
2023-02-08T13:09:05.064Z,101537.12
2023-02-08T13:11:38.586Z,101530.84
2023-02-08T13:14:12.134Z,101533.88
2023-02-08T13:16:42.196Z,101537.78
2023-02-08T13:19:18.483Z,101531.56
2023-02-08T13:21:45.901Z,101550.56
2023-02-08T13:24:24.095Z,101547.78
2023-02-08T13:26:51.573Z,101553.28
2023-02-08T13:29:19.774Z,101558.25
2023-02-08T13:31:52.190Z,101556.03
2023-02-08T13:34:19.649Z,101558.34
2023-02-08T13:36:51.543Z,101557.88
2023-02-08T13:39:41.426Z,101557.62
2023-02-08T13:42:18.841Z,101556.91
2023-02-08T13:44:49.010Z,101554.31
2023-02-08T13:47:42.790Z,101545.28
2023-02-08T13:50:29.352Z,101541.56
2023-02-08T13:52:57.162Z,101550.56
2023-02-08T13:55:34.380Z,101547.50
2023-02-08T13:58:01.807Z,101536.84
2023-02-08T14:00:33.759Z,101542.19
2023-02-08T14:03:02.121Z,101526.13
2023-02-08T14:05:32.466Z,101537.75
2023-02-08T14:07:59.679Z,101536.00
2023-02-08T14:10:53.380Z,101529.94
2023-02-08T14:13:20.503Z,101528.06
2023-02-08T14:15:47.989Z,101534.00
2023-02-08T14:18:19.909Z,101541.97
2023-02-08T14:20:55.413Z,101541.34
2023-02-08T14:23:23.822Z,101529.78
2023-02-08T14:25:51.690Z,101543.09
2023-02-08T14:28:35.195Z,101541.34
2023-02-08T14:31:03.539Z,101546.53
2023-02-08T14:33:35.254Z,101538.69
2023-02-08T14:36:04.202Z,101536.50
2023-02-08T14:38:33.347Z,101540.09
2023-02-08T14:41:01.552Z,101534.78
2023-02-08T14:43:38.892Z,101531.22
2023-02-08T14:46:25.120Z,101531.94
2023-02-08T14:48:52.622Z,101525.72
2023-02-08T14:51:22.240Z,101533.38
2023-02-08T14:53:52.965Z,101526.19
2023-02-08T14:56:23.413Z,101532.94
2023-02-08T14:59:10.778Z,101526.44
2023-02-08T15:02:00.098Z,101521.03
2023-02-08T15:04:27.359Z,101534.38
2023-02-08T15:07:01.781Z,101532.69
2023-02-08T15:09:29.471Z,101534.38
2023-02-08T15:12:00.992Z,101533.38
2023-02-08T15:14:28.745Z,101535.22
2023-02-08T15:16:56.152Z,101527.91
2023-02-08T15:19:23.531Z,101535.37
2023-02-08T15:21:50.703Z,101542.63
2023-02-08T15:24:18.819Z,101537.75
2023-02-08T15:26:48.349Z,101536.56
2023-02-08T15:29:32.758Z,101540.06
2023-02-08T15:32:00.410Z,101542.19
2023-02-08T15:34:27.618Z,101542.88
2023-02-08T15:36:55.547Z,101550.47
2023-02-08T15:39:24.561Z,101556.97
2023-02-08T15:41:51.772Z,101555.53
2023-02-08T15:44:30.112Z,101548.66
2023-02-08T15:46:59.459Z,101553.56
2023-02-08T15:49:28.763Z,101553.16
2023-02-08T15:51:57.054Z,101552.16
2023-02-08T15:54:24.540Z,101550.25
2023-02-08T15:56:54.471Z,101545.06
2023-02-08T15:59:25.874Z,101550.12
2023-02-08T16:01:53.929Z,101560.25
2023-02-08T16:04:21.471Z,101554.22
2023-02-08T16:06:53.325Z,101548.94
2023-02-08T16:09:25.608Z,101548.03
2023-02-08T16:11:53.237Z,101563.91
2023-02-08T16:14:24.229Z,101569.16
2023-02-08T16:16:56.305Z,101562.59
2023-02-08T16:19:31.196Z,101572.19
2023-02-08T16:22:17.751Z,101569.53
2023-02-08T16:24:46.991Z,101567.28
2023-02-08T16:27:41.122Z,101568.66
2023-02-08T16:30:15.517Z,101568.59
2023-02-08T16:32:43.033Z,101566.66
2023-02-08T16:35:13.815Z,101571.03
2023-02-08T16:37:41.330Z,101580.00
2023-02-08T16:40:27.233Z,101579.84
2023-02-08T16:42:54.454Z,101581.97
2023-02-08T16:45:22.804Z,101586.84
2023-02-08T16:47:51.354Z,101593.78
2023-02-08T16:50:19.699Z,101593.19
2023-02-08T16:52:54.777Z,101591.44
2023-02-08T16:55:23.500Z,101596.88
2023-02-08T16:57:52.420Z,101598.66
2023-02-08T17:00:21.556Z,101601.22
2023-02-08T17:02:49.370Z,101606.37
2023-02-08T17:05:17.480Z,101608.59
2023-02-08T17:07:45.191Z,101609.47
2023-02-08T17:10:28.813Z,101613.44
2023-02-08T17:13:09.887Z,101598.78
2023-02-08T17:15:46.207Z,101613.78
2023-02-08T17:18:14.424Z,101616.50
2023-02-08T17:20:42.933Z,101610.63
2023-02-08T17:23:10.744Z,101605.53
2023-02-08T17:25:38.733Z,101618.09
2023-02-08T17:28:11.182Z,101616.19
2023-02-08T17:30:40.620Z,101612.81
2023-02-08T17:33:08.259Z,101612.31
2023-02-08T17:35:37.718Z,101616.13
2023-02-08T17:38:05.879Z,101613.00
2023-02-08T17:40:34.223Z,101619.87
2023-02-08T17:43:02.382Z,101621.94
2023-02-08T17:45:31.076Z,101625.72
2023-02-08T17:48:01.479Z,101622.03
2023-02-08T17:50:30.590Z,101624.62
2023-02-08T17:52:58.673Z,101620.81
2023-02-08T17:55:26.281Z,101618.69
2023-02-08T17:57:53.962Z,101622.81
2023-02-08T18:00:23.846Z,101620.16
2023-02-08T18:02:54.013Z,101629.97
2023-02-08T18:05:25.622Z,101619.91
2023-02-08T18:07:56.493Z,101621.03
2023-02-08T18:10:24.801Z,101627.63
2023-02-08T18:12:53.756Z,101619.81
2023-02-08T18:15:21.526Z,101632.31
2023-02-08T18:17:50.684Z,101625.38
2023-02-08T18:20:19.920Z,101630.78
2023-02-08T18:22:49.270Z,101634.25
2023-02-08T18:25:21.103Z,101630.31
2023-02-08T18:27:49.291Z,101628.53
2023-02-08T18:30:17.867Z,101617.91
2023-02-08T18:32:46.071Z,101634.78
2023-02-08T18:35:13.949Z,101636.16
2023-02-08T18:37:44.864Z,101638.59
2023-02-08T18:40:13.643Z,101642.19
2023-02-08T18:42:41.546Z,101645.38
2023-02-08T18:45:12.019Z,101639.22
2023-02-08T18:47:40.783Z,101650.81
2023-02-08T18:50:09.738Z,101639.03
2023-02-08T18:52:37.967Z,101639.63
2023-02-08T18:55:06.609Z,101645.16
2023-02-08T18:57:39.317Z,101648.91
2023-02-08T19:00:09.984Z,101639.53
2023-02-08T19:02:39.639Z,101648.19
2023-02-08T19:05:09.603Z,101637.75
2023-02-08T19:07:38.912Z,101643.41
2023-02-08T19:10:08.533Z,101653.56
2023-02-08T19:12:38.419Z,101647.28
2023-02-08T19:15:14.160Z,101644.59
2023-02-08T19:17:44.249Z,101645.69
2023-02-08T19:20:12.436Z,101644.44
2023-02-08T19:22:40.726Z,101652.59
2023-02-08T19:25:09.246Z,101644.72
2023-02-08T19:27:37.486Z,101648.19
2023-02-08T19:30:05.595Z,101654.16
2023-02-08T19:32:36.497Z,101647.03
2023-02-08T19:35:07.209Z,101647.19
2023-02-08T19:37:37.261Z,101638.09
2023-02-08T19:40:05.297Z,101649.00
2023-02-08T19:42:33.841Z,101645.72
2023-02-08T19:45:04.747Z,101635.25
2023-02-08T19:47:50.286Z,101642.84
2023-02-08T19:50:19.179Z,101649.09
2023-02-08T19:52:47.237Z,101645.84
2023-02-08T19:55:15.734Z,101645.12
2023-02-08T19:57:44.655Z,101645.75
2023-02-08T20:00:22.958Z,101641.72
2023-02-08T20:02:53.273Z,101638.44
2023-02-08T20:05:21.670Z,101628.88
2023-02-08T20:07:51.962Z,101635.78
2023-02-08T20:10:21.605Z,101637.78
2023-02-08T20:12:50.078Z,101632.44
2023-02-08T20:15:18.215Z,101636.69
2023-02-08T20:17:46.424Z,101639.50
2023-02-08T20:20:15.773Z,101652.75
2023-02-08T20:22:43.729Z,101651.25
2023-02-08T20:25:12.398Z,101644.94
2023-02-08T20:27:40.870Z,101642.34
2023-02-08T20:30:09.274Z,101645.94
2023-02-08T20:32:37.584Z,101646.22
2023-02-08T20:35:05.343Z,101644.75
2023-02-08T20:37:33.859Z,101646.63
2023-02-08T20:40:02.738Z,101650.59
2023-02-08T20:42:31.129Z,101647.78
2023-02-08T20:45:03.397Z,101649.88
2023-02-08T20:47:41.724Z,101647.28
2023-02-08T20:50:19.290Z,101653.47
2023-02-08T20:52:52.053Z,101649.09
2023-02-08T20:55:19.687Z,101655.53
2023-02-08T20:57:49.124Z,101647.28
2023-02-08T21:00:19.709Z,101654.09
2023-02-08T21:02:48.255Z,101653.72
2023-02-08T21:05:17.780Z,101650.66
2023-02-08T21:07:45.801Z,101655.50
2023-02-08T21:10:13.520Z,101649.44
2023-02-08T21:12:44.031Z,101651.63
2023-02-08T21:15:11.929Z,101652.09
2023-02-08T21:17:41.103Z,101657.56
2023-02-08T21:20:09.810Z,101653.25
2023-02-08T21:22:37.928Z,101654.81
2023-02-08T21:25:07.775Z,101648.13
2023-02-08T21:27:53.594Z,101652.09
2023-02-08T21:30:21.261Z,101656.38
2023-02-08T21:32:48.672Z,101647.22
2023-02-08T21:35:17.893Z,101651.72
2023-02-08T21:37:45.633Z,101651.13
2023-02-08T21:40:13.043Z,101640.22
2023-02-08T21:42:40.472Z,101643.41
2023-02-08T21:45:09.832Z,101637.47
2023-02-08T21:47:37.333Z,101626.44
2023-02-08T21:50:23.424Z,101632.41
2023-02-08T21:53:09.407Z,101635.44
2023-02-08T21:55:36.677Z,101630.59
2023-02-08T21:58:04.215Z,101627.31
2023-02-08T22:00:31.453Z,101628.44
2023-02-08T22:02:59.007Z,101624.38
2023-02-08T22:05:26.322Z,101627.19
2023-02-08T22:07:54.542Z,101628.81
2023-02-08T22:10:26.517Z,101633.75
2023-02-08T22:12:55.883Z,101634.34
2023-02-08T22:15:24.539Z,101641.41
2023-02-08T22:17:55.710Z,101645.00
2023-02-08T22:20:23.354Z,101635.25
2023-02-08T22:22:52.605Z,101635.59
2023-02-08T22:25:21.809Z,101630.53
2023-02-08T22:27:49.290Z,101625.22
2023-02-08T22:30:17.199Z,101631.62
2023-02-08T22:32:45.255Z,101634.28
2023-02-08T22:35:14.756Z,101636.81
2023-02-08T22:37:41.911Z,101631.88
2023-02-08T22:40:09.665Z,101628.72
2023-02-08T22:42:38.323Z,101624.69
2023-02-08T22:45:05.561Z,101628.06
2023-02-08T22:47:33.265Z,101633.00
2023-02-08T22:50:01.144Z,101631.66
2023-02-08T22:52:28.405Z,101628.50
2023-02-08T22:54:56.188Z,101634.25
2023-02-08T22:57:23.609Z,101624.62
2023-02-08T22:59:50.831Z,101628.12
2023-02-08T23:02:18.033Z,101628.66
2023-02-08T23:04:45.462Z,101629.75
2023-02-08T23:07:12.606Z,101629.13
2023-02-08T23:09:39.729Z,101627.56
2023-02-08T23:12:07.233Z,101624.13
2023-02-08T23:14:35.964Z,101625.97
2023-02-08T23:17:03.361Z,101621.25
2023-02-08T23:19:30.782Z,101616.41
2023-02-08T23:21:58.446Z,101618.38
2023-02-08T23:24:25.938Z,101621.97
2023-02-08T23:26:53.434Z,101617.50
2023-02-08T23:29:20.592Z,101611.62
2023-02-08T23:31:48.944Z,101613.53
2023-02-08T23:34:16.477Z,101615.66
2023-02-08T23:36:43.627Z,101612.38
2023-02-08T23:39:10.769Z,101608.00
2023-02-08T23:41:38.202Z,101604.62
2023-02-08T23:44:05.445Z,101603.56
2023-02-08T23:46:32.775Z,101601.84
2023-02-08T23:49:00.240Z,101604.69
2023-02-08T23:51:27.408Z,101596.69
2023-02-08T23:53:55.233Z,101593.75
2023-02-08T23:56:26.478Z,101593.53
2023-02-08T23:58:54.707Z,101594.84
